Greenacres, Washington
Current Conditions -  °F | °C
As of 7:53 PM on Friday 24 Oct 2014 (Local Time) from KSFF Reporting Station
Overcast Overcast  
Wind Chill: 52°   Ceiling: 6000
Heat Index: 52°   Visibility: 10mi
Dew Point: 43°   Wind: 3mph
Humidity: 71%   Direction: 60°ENE
Pressure: 30"   Gusts: NA
Location:  47.67°N, 117.16°W
Report Text: KSFF 250253Z 06003KT 10SM BKN060 BKN080 OVC095 11/06 A3000 RMK AO2 SLP162 T01110061 56013
Loading
Personal Weather Stations






























Interactive Weather Map
Tropical Storm Tracking
New forecast layout! Learn more

10-Day Weather Forecast

Advertisements
Track Severe Weather on mobile